Latest Weather Observations for Nuriootpa

IDS60801

Issued at 10:21 pm CST Monday 6 April 2020 (issued every 10 minutes, with the page automatically refreshed every 10 minutes)

About weather observations | Map of weather stations | Latest weather observations for SA | Other Formats
Station Details ID: 023373 Name: NURIOOTPA PIRSA Lat: -34.48 Lon: 139.01 Height: 275.0 m
Data from the previous 72 hours. | See also: Recent months at Nuriootpa
Date/Time
CST
Temp
°C
App
Temp
°C
Dew
Point
°C
Rel
Hum
%
Delta-T
°C
Wind Press
QNH
hPa
Press
MSL
hPa
Rain since
9am
mm
Dir  Spd
km/h
Gust
km/h
Spd
kts
Gust
kts
06/10:00pm 14.2 13.3 10.8 80 1.8 E 6 11 3 6 1023.4 1023.0 0.2
06/09:30pm 14.7 15.1 11.1 79 1.9 CALM 0 0 0 0 1023.3 1022.9 0.2
06/09:00pm 15.2 14.4 11.0 76 2.3 NE 6 9 3 5 1023.2 1022.8 0.2
06/08:30pm 15.7 16.1 11.1 74 2.5 CALM 0 0 0 0 1023.1 1022.7 0.2
06/08:00pm 15.8 16.2 11.2 74 2.5 CALM 0 0 0 0 1023.1 1022.7 0.2
06/07:30pm 15.9 16.4 11.7 76 2.3 CALM 0 0 0 0 1022.9 1022.5 0.2
06/07:00pm 16.1 16.6 11.5 74 2.5 CALM 0 0 0 0 1022.6 1022.2 0.2
06/06:30pm 16.4 17.0 11.8 74 2.5 CALM 0 0 0 0 1022.3 1021.9 0.2
06/06:00pm 16.9 17.2 11.0 68 3.2 CALM 0 0 0 0 1022.2 1021.8 0.2
06/05:30pm 17.5 16.7 11.1 66 3.5 SW 6 9 3 5 1022.0 1021.6 0.2
06/05:00pm 17.3 15.8 10.7 65 3.6 WSW 9 13 5 7 1022.0 1021.6 0.2
06/04:30pm 17.4 16.2 10.3 63 3.8 SSE 7 13 4 7 1021.6 1021.3 0.2
06/04:00pm 17.6 15.4 10.7 64 3.8 S 13 17 7 9 1021.9 1021.5 0.2
06/03:30pm 18.1 16.0 11.0 63 3.9 SSW 13 19 7 10 1021.7 1021.4 0.2
06/03:00pm 17.6 15.0 10.7 64 3.7 WSW 15 20 8 11 1021.9 1021.5 0.2
06/02:30pm 17.9 15.7 10.8 63 3.9 SW 13 17 7 9 1021.9 1021.5 0.2
06/02:00pm 17.2 15.0 10.8 66 3.5 SSW 13 20 7 11 1022.0 1021.6 0.2
06/01:30pm 18.1 16.2 10.5 61 4.1 SSW 11 19 6 10 1022.2 1021.8 0.2
06/01:00pm 17.7 16.9 11.0 65 3.7 WSW 6 13 3 7 1022.3 1021.9 0.2
06/12:30pm 17.1 15.6 10.5 65 3.6 WSW 9 15 5 8 1022.5 1022.1 0.2
06/12:00pm 17.1 15.6 10.5 65 3.6 SW 9 13 5 7 1022.7 1022.3 0.2
06/11:30am 17.0 15.5 10.6 66 3.4 SW 9 15 5 8 1022.9 1022.5 0.2
06/11:00am 16.4 14.1 10.3 67 3.3 WSW 13 19 7 10 1023.2 1022.8 0.2
06/10:30am 15.9 14.6 11.1 73 2.6 WSW 9 15 5 8 1023.4 1023.0 0.0
06/10:00am 15.5 14.3 11.7 78 2.1 WSW 9 15 5 8 1023.5 1023.1 0.0
06/09:30am 14.3 13.2 11.8 85 1.4 SW 9 15 5 8 1023.5 1023.1 0.0
06/09:00am 13.4 13.2 13.1 98 0.2 SSW 6 11 3 6 1023.4 1023.0 3.8
06/08:30am 12.7 13.5 12.7 100 0.0 CALM 0 0 0 0 1023.3 1022.9 3.8
06/08:00am 12.2 12.9 12.2 100 0.0 CALM 0 7 0 4 1022.9 1022.5 3.8
06/07:30am 12.2 11.6 12.2 100 0.0 SW 7 9 4 5 1022.7 1022.3 3.8
06/07:00am 10.7 10.9 10.5 99 0.1 CALM 0 0 0 0 1022.4 1022.0 3.8
06/06:30am 10.1 10.2 10.0 99 0.1 CALM 0 0 0 0 1022.1 1021.7 3.8
06/06:00am 9.7 9.2 9.4 98 0.2 SSE 2 6 1 3 1021.6 1021.3 3.8
06/05:30am 10.9 9.8 10.7 99 0.1 NW 7 9 4 5 1021.1 1020.7 3.8
06/05:00am 11.3 11.6 11.0 98 0.2 CALM 0 0 0 0 1020.8 1020.4 3.8
06/04:30am 12.2 12.8 12.0 99 0.1 CALM 0 0 0 0 1020.3 1019.9 3.8
06/04:00am 11.9 12.4 11.7 99 0.1 CALM 0 0 0 0 1020.2 1019.8 3.6
06/03:30am 11.9 12.4 11.6 98 0.2 CALM 0 0 0 0 1020.2 1019.8 3.6
06/03:00am 12.2 12.8 11.9 98 0.2 CALM 0 0 0 0 1020.0 1019.6 3.6
06/02:30am 12.1 12.7 11.8 98 0.2 CALM 0 0 0 0 1020.0 1019.6 3.6
06/02:00am 12.6 12.0 12.3 98 0.2 WSW 7 9 4 5 1020.0 1019.6 3.6
06/01:30am 12.9 11.6 12.6 98 0.2 WSW 11 15 6 8 1020.0 1019.6 3.6
06/01:00am 13.1 11.5 12.8 98 0.2 WSW 13 19 7 10 1019.9 1019.5 3.6
06/12:30am 13.2 12.0 12.9 98 0.2 W 11 17 6 9 1019.9 1019.5 3.4
06/12:00am 13.2 11.3 12.9 98 0.2 W 15 20 8 11 1019.8 1019.4 2.8
 
Date/Time
CST
Temp
°C
App
Temp
°C
Dew
Point
°C
Rel
Hum
%
Delta-T
°C
Wind Press
QNH
hPa
Press
MSL
hPa
Rain since
9am
mm
Dir  Spd
km/h
Gust
km/h
Spd
kts
Gust
kts
05/11:30pm 13.3 11.3 12.8 97 0.3 W 15 20 8 11 1019.7 1019.3 2.4
05/11:00pm 13.4 11.8 12.9 97 0.3 W 13 22 7 12 1019.9 1019.5 2.0
05/10:30pm 13.3 12.1 12.8 97 0.3 W 11 19 6 10 1019.9 1019.5 2.0
05/10:00pm 13.3 12.1 12.8 97 0.3 W 11 17 6 9 1019.7 1019.3 2.0
05/09:30pm 13.4 11.8 12.9 97 0.3 W 13 19 7 10 1019.5 1019.1 2.0
05/09:00pm 13.6 11.3 13.0 96 0.3 W 17 22 9 12 1019.3 1018.9 2.0
05/08:30pm 13.7 11.3 12.8 94 0.5 W 17 24 9 13 1019.1 1018.7 2.0
05/08:00pm 14.0 11.3 12.9 93 0.6 W 19 24 10 13 1018.7 1018.3 1.6
05/07:30pm 14.0 11.7 12.9 93 0.6 WNW 17 24 9 13 1018.6 1018.2 1.6
05/07:00pm 13.9 11.1 12.5 91 0.8 W 19 32 10 17 1018.2 1017.8 1.6
05/06:30pm 14.0 11.3 12.9 93 0.6 W 19 28 10 15 1017.8 1017.4 1.2
05/06:00pm 15.4 11.1 12.0 80 1.9 W 26 41 14 22 1017.4 1017.0 0.4
05/05:30pm 15.4 11.1 12.0 80 1.9 W 26 41 14 22 1017.2 1016.8 0.4
05/05:00pm 16.2 11.3 11.4 73 2.6 W 28 44 15 24 1016.8 1016.4 0.4
05/04:35pm 16.0 11.2 11.8 76 2.3 WSW 28 46 15 25 1016.5 1016.1 0.4
05/04:30pm 16.4 11.4 10.9 70 3.0 WSW 28 43 15 23 1016.4 1016.0 0.4
05/04:00pm 16.2 11.5 12.0 76 2.3 WSW 28 41 15 22 1016.4 1016.0 0.4
05/03:39pm 16.7 10.8 10.3 66 3.4 W 32 50 17 27 1016.1 1015.7 0.4
05/03:30pm 16.8 10.8 10.9 68 3.2 W 33 48 18 26 1016.1 1015.7 0.4
05/03:03pm 17.4 12.1 11.4 68 3.3 W 30 48 16 26 1016.0 1015.6 0.4
05/03:00pm 16.9 11.2 11.0 68 3.2 W 32 48 17 26 1016.0 1015.6 0.4
05/02:30pm 17.8 11.9 10.4 62 4.0 W 32 46 17 25 1015.9 1015.5 0.4
05/02:00pm 16.1 10.3 11.5 74 2.5 WSW 33 54 18 29 1016.1 1015.7 0.4
05/01:41pm 17.2 12.1 11.9 71 2.9 W 30 48 16 26 1016.1 1015.7 0.4
05/01:30pm 16.4 10.6 11.6 73 2.6 W 33 48 18 26 1015.9 1015.5 0.4
05/01:00pm 16.3 10.9 12.3 77 2.2 W 32 43 17 23 1016.3 1015.9 0.4
05/12:30pm 15.1 8.4 12.4 84 1.5 W 39 57 21 31 1016.5 1016.1 0.4
05/12:00pm 14.8 9.4 12.3 85 1.4 W 32 50 17 27 1016.4 1016.0 0.4
05/11:59am 14.6 9.2 12.1 85 1.4 W 32 50 17 27 1016.4 1016.0 0.4
05/11:30am 14.2 9.4 12.8 91 0.8 W 30 43 16 23 1016.8 1016.4 0.4
05/11:00am 15.8 10.3 11.8 77 2.2 W 32 48 17 26 1016.8 1016.4 0.4
05/10:49am 15.1 9.2 11.3 78 2.1 W 33 52 18 28 1016.9 1016.5 0.4
05/10:30am 14.8 8.9 12.3 85 1.4 WNW 35 50 19 27 1017.0 1016.6 0.4
05/10:00am 14.0 9.5 12.7 92 0.7 WNW 28 39 15 21 1017.1 1016.7 0.4
05/09:30am 14.1 9.3 11.6 85 1.4 WNW 28 39 15 21 1017.2 1016.8 0.0
05/09:00am 12.8 8.7 11.5 92 0.7 WNW 24 35 13 19 1017.3 1016.9 1.4
05/08:30am 12.6 9.0 11.7 94 0.5 WNW 22 33 12 18 1017.1 1016.7 1.4
05/08:00am 12.0 8.3 11.4 96 0.3 WNW 22 30 12 16 1016.8 1016.4 1.4
05/07:30am 11.9 8.5 11.1 95 0.4 WNW 20 28 11 15 1016.4 1016.0 1.2
05/07:00am 11.5 8.2 10.9 96 0.3 WNW 19 30 10 16 1016.0 1015.6 1.2
05/06:30am 11.6 8.7 11.0 96 0.3 WNW 17 26 9 14 1015.6 1015.2 1.2
05/06:00am 11.3 7.9 10.5 95 0.4 WNW 19 24 10 13 1015.3 1014.9 1.0
05/05:30am 11.4 8.4 10.8 96 0.3 WNW 17 24 9 13 1015.3 1014.9 1.0
05/05:00am 11.2 8.0 10.1 93 0.6 WNW 17 22 9 12 1014.9 1014.4 0.6
05/04:30am 11.3 6.9 10.4 94 0.5 WNW 24 33 13 18 1014.6 1014.1 0.6
05/04:00am 11.2 8.0 10.0 92 0.6 WNW 17 28 9 15 1014.4 1013.9 0.6
05/03:30am 11.0 7.7 9.6 91 0.7 WNW 17 24 9 13 1014.1 1013.7 0.6
05/03:00am 11.7 7.8 9.3 85 1.2 WNW 20 28 11 15 1014.3 1013.8 0.6
05/03:30am 12.0 7.7 9.2 83 1.4 W 22 30 12 16 1014.3 1013.8 0.6
05/03:00am 11.6 7.8 9.2 85 1.2 W 19 26 10 14 1014.5 1014.0 0.6
05/02:30am 11.3 7.6 9.4 88 1.0 WNW 19 28 10 15 1014.5 1014.0 0.6
05/02:00am 10.9 7.5 9.2 89 0.9 WNW 17 28 9 15 1014.5 1014.0 0.6
05/01:30am 11.5 8.2 9.4 87 1.1 W 17 26 9 14 1014.6 1014.1 0.6
05/01:00am 11.5 7.5 9.2 86 1.2 W 20 28 11 15 1014.4 1013.9 0.6
05/12:30am 11.1 7.6 8.8 86 1.2 W 17 22 9 12 1014.7 1014.2 0.6
05/12:00am 11.6 7.5 8.8 83 1.4 W 20 32 11 17 1014.9 1014.4 0.6
 
Date/Time
CST
Temp
°C
App
Temp
°C
Dew
Point
°C
Rel
Hum
%
Delta-T
°C
Wind Press
QNH
hPa
Press
MSL
hPa
Rain since
9am
mm
Dir  Spd
km/h
Gust
km/h
Spd
kts
Gust
kts
04/11:30pm 11.5 7.0 8.5 82 1.5 W 22 32 12 17 1014.8 1014.3 0.6
04/11:00pm 11.7 7.7 8.9 83 1.4 W 20 30 11 16 1014.8 1014.3 0.6
04/10:30pm 12.2 7.8 9.0 81 1.6 W 22 32 12 17 1014.8 1014.3 0.6
04/10:00pm 12.5 8.8 9.3 81 1.6 W 19 30 10 16 1014.8 1014.3 0.6
04/09:30pm 12.7 8.8 9.3 80 1.7 W 20 30 11 16 1014.6 1014.1 0.6
04/09:00pm 12.4 8.6 9.1 80 1.7 W 19 28 10 15 1014.3 1013.8 0.6
04/08:30pm 12.3 8.9 9.3 82 1.5 W 17 24 9 13 1014.0 1013.6 0.6
04/08:00pm 12.4 8.5 9.6 83 1.4 WSW 20 39 11 21 1013.7 1013.3 0.6
04/07:30pm 13.4 8.6 8.9 74 2.3 W 24 33 13 18 1013.2 1012.8 0.6
04/07:00pm 13.3 8.5 8.8 74 2.3 W 24 35 13 19 1012.6 1012.2 0.6
04/06:30pm 13.9 9.9 9.1 73 2.5 WSW 20 30 11 16 1012.5 1012.1 0.6
04/06:00pm 14.0 9.0 9.6 75 2.3 WSW 26 37 14 20 1012.1 1011.7 0.6
04/05:39pm 13.7 8.1 8.7 72 2.6 WSW 28 46 15 25 1011.7 1011.2 0.6
04/05:30pm 13.8 8.4 9.6 76 2.2 WSW 28 39 15 21 1011.8 1011.3 0.6
04/05:09pm 13.1 8.0 10.5 84 1.4 WSW 28 54 15 29 1011.6 1011.1 0.6
04/05:00pm 12.4 7.3 10.5 88 1.0 WSW 28 44 15 24 1011.5 1011.0 0.6
04/04:41pm 13.3 7.2 9.7 79 1.9 W 32 56 17 30 1011.4 1010.9 0.4
04/04:30pm 14.1 8.1 10.1 77 2.1 W 32 46 17 25 1011.0 1010.5 0.4
04/04:00pm 15.6 8.5 8.1 61 3.8 WSW 35 54 19 29 1010.8 1010.3 0.4
04/03:41pm 15.5 7.6 8.0 61 3.8 WSW 39 57 21 31 1010.8 1010.3 0.4
04/03:30pm 16.2 7.9 7.9 58 4.2 WSW 41 57 22 31 1010.6 1010.1 0.4
04/03:02pm 15.8 8.0 8.1 60 3.9 WSW 39 57 21 31 1010.6 1010.1 0.4
04/03:00pm 15.3 7.0 7.6 60 3.9 WSW 41 57 22 31 1010.5 1010.0 0.4
04/02:33pm 15.4 8.6 9.1 66 3.3 WSW 35 54 19 29 1010.3 1009.9 0.4
04/02:30pm 15.2 7.9 8.7 65 3.4 W 37 54 20 29 1010.3 1009.9 0.4
04/02:06pm 15.8 8.1 8.5 62 3.8 WSW 39 57 21 31 1010.3 1009.9 0.4
04/02:00pm 15.9 7.9 8.9 63 3.6 WSW 41 56 22 30 1010.3 1009.9 0.2
04/01:40pm 14.8 8.4 8.7 67 3.1 WSW 32 50 17 27 1010.5 1010.0 0.2
04/01:30pm 14.5 8.8 9.7 73 2.5 WSW 30 43 16 23 1010.6 1010.1 0.2
04/01:00pm 14.3 8.7 10.1 76 2.2 WSW 30 41 16 22 1010.5 1010.0 0.2
04/12:31pm 14.2 7.3 9.0 71 2.7 WSW 35 54 19 29 1010.6 1010.1 0.2
04/12:30pm 14.3 7.0 8.9 70 2.8 WSW 37 54 20 29 1010.5 1010.0 0.2
04/12:00pm 15.2 8.1 8.2 63 3.6 WSW 35 57 19 31 1010.2 1009.8 0.2
04/11:30am 14.2 7.2 8.4 68 3.0 WSW 35 57 19 31 1010.1 1009.7 0.2
04/11:00am 14.3 7.8 8.9 70 2.8 WSW 33 52 18 28 1010.0 1009.6 0.2
04/10:30am 13.9 7.5 9.3 74 2.4 WSW 33 54 18 29 1009.8 1009.4 0.2
04/10:16am 13.4 8.1 9.8 79 1.9 WSW 28 46 15 25 1009.8 1009.4 0.2
04/10:00am 12.6 7.7 9.8 83 1.5 WSW 26 39 14 21 1009.6 1009.2 0.2
04/09:30am 11.8 5.9 9.2 84 1.3 W 30 50 16 27 1009.4 1009.0 0.2
04/09:29am 11.9 6.1 9.3 84 1.3 W 30 50 16 27 1009.3 1008.9 0.2
04/09:00am 11.0 5.7 8.6 85 1.2 WSW 26 39 14 21 1009.0 1008.6 12.6
04/08:30am 10.6 6.3 9.4 92 0.6 W 22 41 12 22 1008.6 1008.1 12.4
04/08:00am 10.1 6.1 8.4 89 0.8 WSW 19 24 10 13 1008.3 1007.8 12.0
04/07:30am 10.2 4.1 8.3 88 0.9 WSW 30 54 16 29 1008.1 1007.6 12.0
04/07:28am 10.3 4.7 8.6 89 0.8 WSW 28 54 15 29 1008.1 1007.6 12.0
04/07:00am 10.7 5.6 9.1 90 0.8 WSW 26 44 14 24 1007.5 1007.0 11.0
04/06:54am 10.9 5.4 9.2 89 0.9 WSW 28 44 15 24 1007.4 1006.9 11.0
04/06:30am 10.7 7.2 8.6 87 1.1 W 17 26 9 14 1007.1 1006.6 11.0
04/06:00am 10.7 5.7 8.1 84 1.3 WSW 24 35 13 19 1006.4 1006.0 11.0
04/05:30am 10.8 4.1 8.0 83 1.4 WSW 33 59 18 32 1006.2 1005.8 11.0
04/05:26am 11.1 5.3 7.8 80 1.6 WSW 28 59 15 32 1006.1 1005.7 11.0
04/05:00am 10.8 6.4 9.1 89 0.9 W 22 32 12 17 1005.6 1005.1 11.0
04/04:30am 10.9 4.8 9.7 92 0.6 WSW 32 44 17 24 1005.6 1005.1 11.0
04/04:14am 11.1 5.5 10.2 94 0.5 WSW 30 50 16 27 1005.5 1005.0 10.8
04/04:00am 11.2 6.4 10.4 95 0.4 W 26 44 14 24 1005.2 1004.7 10.4
04/03:30am 11.3 6.1 10.4 94 0.5 WSW 28 41 15 22 1005.0 1004.5 9.6
04/03:00am 11.0 7.3 10.1 94 0.5 SW 20 30 11 16 1004.8 1004.3 9.2
04/02:33am 11.6 6.4 10.3 92 0.7 W 28 48 15 26 1004.7 1004.2 8.4
04/02:30am 11.7 6.2 10.4 92 0.7 W 30 44 16 24 1004.6 1004.1 8.4
04/02:00am 12.1 6.4 9.8 86 1.2 W 30 44 16 24 1004.5 1004.0 7.4
04/01:33am 12.2 6.8 9.6 84 1.3 W 28 46 15 25 1004.1 1003.6 7.4
04/01:30am 12.2 7.2 9.6 84 1.3 W 26 43 14 23 1004.2 1003.7 7.4
04/01:00am 11.9 6.6 9.8 87 1.1 W 28 39 15 21 1004.2 1003.7 7.4
04/12:48am 11.8 6.4 9.4 85 1.2 W 28 46 15 25 1004.0 1003.5 7.4
04/12:30am 11.9 6.6 9.8 87 1.1 W 28 35 15 19 1004.0 1003.5 7.4
04/12:00am 12.7 7.4 9.9 83 1.5 W 28 43 15 23 1004.2 1003.7 7.4
 
Date/Time
CST
Temp
°C
App
Temp
°C
Dew
Point
°C
Rel
Hum
%
Delta-T
°C
Wind Press
QNH
hPa
Press
MSL
hPa
Rain since
9am
mm
Dir  Spd
km/h
Gust
km/h
Spd
kts
Gust
kts
03/11:30pm 12.7 7.5 10.1 84 1.4 W 28 44 15 24 1004.1 1003.6 7.2

Other formats

Comma delimited format used in spreadsheet applications
http://www.bom.gov.au/fwo/IDS60801/IDS60801.94681.axf

JavaScript Object Notation format (JSON) in row-major order
http://www.bom.gov.au/fwo/IDS60801/IDS60801.94681.json

Data quality

Most of these data are generated automatically and are frequently updated. Quality checks on data are not normally performed. It is possible for incorrect values to appear. Refer to information at About Latest Weather Observations and please check the disclaimer before using these data.